Time;durP1;ratioP1;P1;durP2;ratioP2;P2;SDS_P1;SDS_P2;PMS_P1;PMS_P2;Temp;Humidity;BMP_temperature;BMP_pressure;BME280_temperature;BME280_humidity;BME280_pressure;Samples;Min_cycle;Max_cycle;Signal;HPM_P1;HPM_P2
2022/04/13 00:00:33;;;;;;;1.90;0.50;;;;;;;19.36;47.70;100982.78;4985484;28;20042;-41
2022/04/13 00:02:58;;;;;;;1.75;0.32;;;;;;;19.37;47.83;100981.78;4984285;28;20142;-43
2022/04/13 00:05:25;;;;;;;0.80;0.30;;;;;;;19.37;47.63;100987.06;4987376;28;20026;-41
2022/04/13 00:07:50;;;;;;;1.60;0.43;;;;;;;19.38;47.75;100974.66;4985605;28;20057;-44
2022/04/13 00:10:16;;;;;;;1.00;0.40;;;;;;;19.39;47.90;100986.84;4985482;28;20556;-43
2022/04/13 00:12:41;;;;;;;1.98;0.60;;;;;;;19.38;47.73;100972.81;4986391;28;20070;-44
2022/04/13 00:15:08;;;;;;;3.85;0.45;;;;;;;19.39;47.71;100973.63;4986140;28;20113;-44
2022/04/13 00:17:36;;;;;;;1.20;0.40;;;;;;;19.39;47.64;100971.81;4986267;28;20133;-46
2022/04/13 00:20:05;;;;;;;1.45;0.43;;;;;;;19.40;47.29;100970.00;4988000;28;20025;-45
2022/04/13 00:22:31;;;;;;;1.05;0.40;;;;;;;19.40;47.55;100970.81;4984944;28;20354;-43
2022/04/13 00:24:57;;;;;;;1.52;0.43;;;;;;;19.40;47.66;100964.72;5000812;28;20431;-45
2022/04/13 00:27:23;;;;;;;2.20;0.40;;;;;;;19.39;47.77;100963.88;4985747;28;20034;-41
2022/04/13 00:29:48;;;;;;;2.90;0.30;;;;;;;19.40;47.59;100959.44;4985337;28;20533;-42
2022/04/13 00:32:13;;;;;;;2.75;0.30;;;;;;;19.39;47.72;100963.06;4987164;28;20121;-43
2022/04/13 00:34:39;;;;;;;1.92;0.40;;;;;;;19.38;47.62;100962.25;4984668;28;20034;-42
2022/04/13 00:37:05;;;;;;;0.98;0.30;;;;;;;19.36;47.75;100963.47;4984725;28;20031;-43
2022/04/13 00:39:30;;;;;;;2.55;0.40;;;;;;;19.36;47.67;100959.00;4985047;28;20109;-45
2022/04/13 00:42:02;;;;;;;2.88;0.40;;;;;;;19.33;47.68;100956.75;4985873;28;20034;-42
2022/04/13 00:44:29;;;;;;;1.73;0.43;;;;;;;19.34;47.54;100960.22;4984485;28;20037;-43
2022/04/13 00:46:56;;;;;;;0.80;0.20;;;;;;;19.35;47.67;100959.19;4987681;28;20031;-44
2022/04/13 00:49:23;;;;;;;1.20;0.35;;;;;;;19.34;47.76;100954.94;4985667;28;20041;-42
2022/04/13 00:51:49;;;;;;;0.77;0.30;;;;;;;19.33;47.49;100954.09;4986099;28;20026;-42
2022/04/13 00:54:17;;;;;;;0.93;0.30;;;;;;;19.32;47.63;100955.13;4985455;28;20638;-42
2022/04/13 00:56:45;;;;;;;1.80;0.40;;;;;;;19.33;47.81;100948.81;5001400;28;20038;-45
2022/04/13 00:59:14;;;;;;;1.77;0.30;;;;;;;19.32;47.51;100946.38;4985360;28;20030;-43
2022/04/13 01:01:46;;;;;;;2.50;0.35;;;;;;;19.32;47.43;100949.00;4986143;28;20145;-44
2022/04/13 01:04:14;;;;;;;0.60;0.20;;;;;;;19.31;47.49;100948.19;4986750;28;20125;-43
2022/04/13 01:06:42;;;;;;;1.30;0.30;;;;;;;19.32;47.53;100952.47;4986203;28;20096;-42
2022/04/13 01:09:07;;;;;;;1.13;0.30;;;;;;;19.32;47.36;100955.13;4985622;28;20486;-44
2022/04/13 01:11:33;;;;;;;0.80;0.40;;;;;;;19.31;47.24;100944.75;4986060;28;20049;-44
2022/04/13 01:13:59;;;;;;;3.15;0.40;;;;;;;19.29;47.24;100944.94;4989184;28;20034;-41
2022/04/13 01:16:28;;;;;;;1.92;0.50;;;;;;;19.29;47.15;100949.38;4990279;28;20061;-45
2022/04/13 01:18:55;;;;;;;1.30;0.30;;;;;;;19.27;47.19;100944.28;4990445;28;20080;-43
2022/04/13 01:21:45;;;;;;;1.20;0.30;;;;;;;19.24;46.97;100944.66;4988686;28;20034;-44
2022/04/13 01:24:12;;;;;;;1.73;0.30;;;;;;;19.26;47.28;100942.66;4990325;28;20644;-44
2022/04/13 01:26:38;;;;;;;0.93;0.30;;;;;;;19.25;47.21;100945.50;4990083;28;20037;-42
2022/04/13 01:29:05;;;;;;;1.52;0.40;;;;;;;19.26;47.39;100947.13;4989467;28;20443;-45
2022/04/13 01:31:31;;;;;;;0.70;0.22;;;;;;;19.24;47.49;100944.66;4990304;28;20061;-44
2022/04/13 01:33:59;;;;;;;1.08;0.40;;;;;;;19.23;47.26;100949.13;4988727;28;20121;-43
2022/04/13 01:36:25;;;;;;;1.75;0.32;;;;;;;19.23;47.30;100956.25;4989650;28;20030;-46
2022/04/13 01:38:50;;;;;;;1.83;0.30;;;;;;;19.23;47.31;100943.03;4987420;28;20101;-45
2022/04/13 01:41:16;;;;;;;1.75;0.43;;;;;;;19.21;47.14;100943.22;4988879;28;20022;-46
2022/04/13 01:43:41;;;;;;;1.05;0.30;;;;;;;19.21;47.16;100945.88;4988907;28;20544;-43
2022/04/13 01:46:06;;;;;;;2.17;0.50;;;;;;;19.21;47.06;100945.06;4989702;28;20034;-46
2022/04/13 01:48:32;;;;;;;0.80;0.30;;;;;;;19.20;46.91;100943.41;4989774;28;20030;-44
2022/04/13 01:51:00;;;;;;;1.67;0.30;;;;;;;19.18;46.53;100940.13;4988903;28;20045;-42
2022/04/13 01:53:27;;;;;;;1.95;0.30;;;;;;;19.20;46.66;100935.50;4988669;28;20054;-44
2022/04/13 01:55:53;;;;;;;0.68;0.30;;;;;;;19.19;46.64;100941.78;4988153;28;20033;-42
2022/04/13 01:58:20;;;;;;;1.13;0.30;;;;;;;19.19;46.62;100932.03;5004342;28;20039;-43
2022/04/13 02:00:45;;;;;;;1.35;0.30;;;;;;;19.19;46.72;100936.50;4989293;28;20112;-43
2022/04/13 02:03:11;;;;;;;0.50;0.20;;;;;;;19.19;46.91;100936.50;4988338;28;20482;-44
2022/04/13 02:05:36;;;;;;;1.40;0.30;;;;;;;19.19;46.92;100932.03;4987792;28;20034;-44
2022/04/13 02:08:02;;;;;;;0.88;0.40;;;;;;;19.20;46.94;100933.66;4989427;28;20611;-41
2022/04/13 02:13:03;;;;;;;3.28;0.40;;;;;;;19.21;46.93;100927.38;5055436;23;20066;-47
2022/04/13 02:15:28;;;;;;;4.20;0.30;;;;;;;19.23;47.14;100924.53;4989481;28;20037;-45
2022/04/13 02:17:54;;;;;;;0.90;0.30;;;;;;;19.22;47.16;100912.34;4989509;28;20034;-45
2022/04/13 02:20:19;;;;;;;0.75;0.30;;;;;;;19.23;47.13;100912.16;4989571;28;20205;-43
2022/04/13 02:22:46;;;;;;;0.80;0.30;;;;;;;19.24;47.02;100912.97;4989104;28;20385;-41
2022/04/13 02:25:12;;;;;;;0.93;0.25;;;;;;;19.24;46.96;100907.69;4987913;28;20405;-41
2022/04/13 02:27:37;;;;;;;3.22;0.20;;;;;;;19.25;46.76;100903.22;4989812;28;20019;-43
2022/04/13 02:30:04;;;;;;;0.50;0.20;;;;;;;19.24;46.86;100902.41;4989349;28;20031;-48
2022/04/13 02:32:29;;;;;;;0.50;0.20;;;;;;;19.24;46.62;100902.41;5003929;28;20034;-44
2022/04/13 02:34:55;;;;;;;0.82;0.22;;;;;;;19.25;46.67;100903.22;4989108;28;20117;-40
2022/04/13 02:37:20;;;;;;;1.85;0.30;;;;;;;19.23;46.67;100900.78;4989258;28;20129;-44
2022/04/13 02:39:46;;;;;;;0.70;0.25;;;;;;;19.22;46.56;100899.13;4989004;28;20351;-43
2022/04/13 02:42:17;;;;;;;0.57;0.28;;;;;;;19.21;46.50;100900.16;4989176;28;20445;-41
2022/04/13 02:44:43;;;;;;;1.15;0.30;;;;;;;19.20;46.36;100895.88;4989026;28;20033;-43
2022/04/13 02:47:10;;;;;;;1.27;0.20;;;;;;;19.19;46.42;100897.69;4989017;28;20045;-42
2022/04/13 02:49:36;;;;;;;1.23;0.20;;;;;;;19.19;46.47;100900.34;4988853;28;20054;-41
2022/04/13 02:52:02;;;;;;;1.58;0.30;;;;;;;19.18;46.40;100900.53;4988989;28;20030;-43
2022/04/13 02:54:27;;;;;;;1.23;0.30;;;;;;;19.17;46.36;100898.88;4988904;28;20386;-41
2022/04/13 02:56:53;;;;;;;0.63;0.20;;;;;;;19.15;46.32;100893.78;4988680;28;20038;-44
2022/04/13 02:59:18;;;;;;;0.90;0.30;;;;;;;19.16;46.16;100894.63;4988494;28;20027;-43
2022/04/13 03:01:44;;;;;;;6.72;0.30;;;;;;;19.15;46.03;100892.97;4988732;28;20026;-43
2022/04/13 03:04:10;;;;;;;0.70;0.30;;;;;;;19.14;46.06;100880.78;4988470;28;20030;-44
2022/04/13 03:06:35;;;;;;;0.75;0.20;;;;;;;19.14;46.09;100884.25;4988488;28;20022;-43
2022/04/13 03:09:03;;;;;;;1.02;0.30;;;;;;;19.15;46.00;100885.06;4988495;28;20053;-43
2022/04/13 03:11:29;;;;;;;0.52;0.20;;;;;;;19.14;46.11;100886.06;4988178;28;20202;-45
2022/04/13 03:13:54;;;;;;;1.02;0.30;;;;;;;19.14;46.04;100888.69;4988537;28;20265;-42
2022/04/13 03:16:20;;;;;;;0.50;0.20;;;;;;;19.14;46.01;100892.16;5003020;28;20062;-42
2022/04/13 03:18:45;;;;;;;0.50;0.20;;;;;;;19.13;46.00;100885.25;4988328;28;20364;-44
2022/04/13 03:21:11;;;;;;;1.48;0.20;;;;;;;19.13;46.32;100887.06;4987979;28;20034;-43
2022/04/13 03:23:36;;;;;;;0.80;0.30;;;;;;;19.13;46.36;100897.63;4987924;28;20034;-41
2022/04/13 03:26:02;;;;;;;1.08;0.28;;;;;;;19.11;46.32;100886.44;4988161;28;20121;-42
2022/04/13 03:28:27;;;;;;;1.20;0.20;;;;;;;19.10;46.21;100892.72;4988023;28;20027;-45
2022/04/13 03:30:53;;;;;;;1.63;0.35;;;;;;;19.10;46.27;100901.47;5002717;28;20026;-46
2022/04/13 03:33:19;;;;;;;1.13;0.20;;;;;;;19.10;46.28;100895.38;4987720;28;20553;-43
2022/04/13 03:35:44;;;;;;;1.70;0.40;;;;;;;19.09;46.36;100899.00;4987026;28;20030;-41
2022/04/13 03:38:10;;;;;;;1.00;0.30;;;;;;;19.09;46.27;100901.66;4987720;28;20478;-43
2022/04/13 03:40:35;;;;;;;1.45;0.22;;;;;;;19.07;46.33;100893.91;4987723;28;20031;-41
2022/04/13 03:43:01;;;;;;;1.17;0.20;;;;;;;19.06;46.13;100897.56;4987823;28;20492;-41
2022/04/13 03:45:26;;;;;;;0.85;0.20;;;;;;;19.06;46.22;100905.50;4987749;28;20038;-41
2022/04/13 03:47:51;;;;;;;1.48;0.30;;;;;;;19.05;46.10;100898.56;4987816;28;20030;-42
2022/04/13 03:50:18;;;;;;;0.85;0.30;;;;;;;19.05;46.04;100901.22;4987757;28;20083;-45
2022/04/13 03:52:43;;;;;;;0.85;0.20;;;;;;;19.06;45.92;100904.66;4987844;28;20373;-44
2022/04/13 03:55:09;;;;;;;0.60;0.20;;;;;;;19.04;46.07;100906.69;4986125;28;20035;-43
2022/04/13 03:57:35;;;;;;;1.60;0.30;;;;;;;19.02;45.96;100900.78;4987537;28;20026;-44
2022/04/13 04:00:01;;;;;;;1.77;0.20;;;;;;;19.03;46.04;100910.34;4987741;28;20039;-45
2022/04/13 04:02:26;;;;;;;0.90;0.30;;;;;;;19.02;46.00;100908.69;5002107;28;20482;-46
2022/04/13 04:04:52;;;;;;;0.57;0.20;;;;;;;19.01;45.74;100920.25;4987469;28;20113;-44
2022/04/13 04:07:17;;;;;;;0.80;0.20;;;;;;;19.01;45.79;100914.97;4987573;28;20034;-44
2022/04/13 04:09:44;;;;;;;1.20;0.20;;;;;;;19.02;45.74;100913.97;4987351;28;20420;-41
2022/04/13 04:12:10;;;;;;;0.40;0.20;;;;;;;19.02;45.92;100913.97;4987114;28;20162;-43
2022/04/13 04:14:35;;;;;;;0.63;0.20;;;;;;;19.01;45.50;100915.81;4987185;28;20113;-45
2022/04/13 04:17:01;;;;;;;0.63;0.20;;;;;;;19.03;45.67;100918.25;4987087;28;20030;-43
2022/04/13 04:19:26;;;;;;;1.48;0.28;;;;;;;19.04;45.76;100919.88;4987173;28;20054;-40
2022/04/13 04:21:52;;;;;;;2.47;0.20;;;;;;;19.04;45.87;100918.06;4987046;28;20030;-40
2022/04/13 04:24:17;;;;;;;0.70;0.20;;;;;;;19.06;45.96;100912.59;4986989;28;20041;-40
2022/04/13 04:26:43;;;;;;;0.85;0.30;;;;;;;19.06;46.04;100913.41;4987010;28;20026;-43
2022/04/13 04:29:09;;;;;;;0.90;0.28;;;;;;;19.07;46.27;100916.88;4987103;28;20030;-42
2022/04/13 04:31:49;;;;;;;1.83;0.38;;;;;;;19.07;46.22;100922.16;4985509;28;20052;-44
2022/04/13 04:34:16;;;;;;;1.10;0.28;;;;;;;19.07;46.05;100922.16;4987075;28;20026;-43
2022/04/13 04:36:42;;;;;;;2.88;0.40;;;;;;;19.07;46.00;100922.16;4986985;28;20030;-43
2022/04/13 04:39:07;;;;;;;0.80;0.17;;;;;;;19.07;45.90;100919.50;4987086;28;20018;-41
2022/04/13 04:41:33;;;;;;;1.05;0.20;;;;;;;19.08;45.98;100918.50;4987106;28;20030;-41
2022/04/13 04:43:59;;;;;;;0.60;0.20;;;;;;;19.07;45.97;100917.69;4986883;28;20034;-44
2022/04/13 04:46:25;;;;;;;1.15;0.38;;;;;;;19.06;45.71;100905.50;4987612;28;20130;-40
2022/04/13 04:48:50;;;;;;;1.50;0.20;;;;;;;19.07;45.69;100909.78;4990971;28;20022;-41
2022/04/13 04:51:16;;;;;;;2.40;0.30;;;;;;;19.06;45.68;100907.31;4990656;28;20033;-43
2022/04/13 04:53:41;;;;;;;1.15;0.20;;;;;;;19.04;45.74;100906.69;4991093;28;20276;-41
2022/04/13 04:56:07;;;;;;;1.08;0.20;;;;;;;19.02;45.57;100908.69;4990922;28;20041;-42
2022/04/13 04:58:33;;;;;;;2.40;0.30;;;;;;;19.01;45.46;100902.59;4990895;28;20022;-42
2022/04/13 05:00:58;;;;;;;0.90;0.20;;;;;;;19.01;45.62;100902.59;4989744;28;20528;-42
2022/04/13 05:03:24;;;;;;;1.23;0.20;;;;;;;19.00;45.62;100910.72;5005610;28;20038;-43
2022/04/13 05:05:49;;;;;;;3.72;0.20;;;;;;;18.99;45.56;100909.88;4989816;28;20114;-40
2022/04/13 05:08:14;;;;;;;2.63;0.20;;;;;;;18.98;45.56;100913.53;4990118;28;20429;-42
2022/04/13 05:10:50;;;;;;;0.77;0.25;;;;;;;18.98;45.48;100910.06;4989533;28;20502;-40
2022/04/13 05:13:19;;;;;;;1.48;0.30;;;;;;;18.97;45.52;100914.53;4990260;28;20410;-41
2022/04/13 05:15:48;;;;;;;3.08;0.20;;;;;;;18.96;45.52;100915.53;4985731;28;20057;-44
2022/04/13 05:18:13;;;;;;;1.50;0.30;;;;;;;18.96;45.44;100920.81;4990742;28;20313;-43
2022/04/13 05:20:40;;;;;;;1.60;0.20;;;;;;;18.97;45.36;100922.47;4988873;28;20672;-41
2022/04/13 05:23:06;;;;;;;0.80;0.20;;;;;;;18.98;45.36;100918.00;4988534;28;20049;-45
2022/04/13 05:25:31;;;;;;;0.75;0.20;;;;;;;18.97;45.32;100919.81;4989671;28;20398;-40
2022/04/13 05:27:57;;;;;;;0.80;0.20;;;;;;;18.97;45.33;100921.66;4990227;28;20045;-43
2022/04/13 05:30:22;;;;;;;0.55;0.20;;;;;;;18.97;45.38;100921.66;4987271;28;20037;-43
2022/04/13 05:32:58;;;;;;;0.40;0.30;;;;;;;18.94;45.33;100922.00;4990041;28;20037;-41
2022/04/13 05:35:33;;;;;;;1.48;0.30;;;;;;;18.95;45.15;100923.66;4988702;28;20042;-43
2022/04/13 05:37:59;;;;;;;1.27;0.22;;;;;;;18.93;45.23;100923.84;4989137;28;20034;-42
2022/04/13 05:40:24;;;;;;;2.05;0.32;;;;;;;18.94;45.07;100919.38;4988788;28;20426;-40
2022/04/13 05:42:53;;;;;;;0.73;0.20;;;;;;;18.93;45.04;100921.19;4988571;28;20129;-41
2022/04/13 05:45:18;;;;;;;1.10;0.30;;;;;;;18.93;45.00;100923.03;4988920;28;20129;-43
2022/04/13 05:47:44;;;;;;;0.85;0.20;;;;;;;18.93;45.05;100926.47;4987687;28;20130;-40
2022/04/13 05:50:11;;;;;;;0.88;0.30;;;;;;;18.92;44.94;100924.03;4989046;28;20030;-40
2022/04/13 05:52:37;;;;;;;1.00;0.28;;;;;;;18.90;44.99;100930.31;4988669;28;20366;-43
2022/04/13 05:55:03;;;;;;;0.63;0.30;;;;;;;18.91;44.97;100925.84;4989546;28;20106;-41
2022/04/13 05:57:29;;;;;;;1.58;0.30;;;;;;;18.90;45.08;100932.94;4988644;28;20080;-40
2022/04/13 05:59:54;;;;;;;0.85;0.28;;;;;;;18.89;45.14;100936.63;4986558;28;20030;-40
2022/04/13 06:02:20;;;;;;;2.85;0.30;;;;;;;18.89;45.14;100935.81;4989847;28;20045;-45
2022/04/13 06:04:46;;;;;;;1.73;0.20;;;;;;;18.89;45.22;100941.91;4989337;28;20497;-42
2022/04/13 06:07:13;;;;;;;0.60;0.20;;;;;;;18.88;45.24;100945.56;4989203;28;20113;-40
2022/04/13 06:09:38;;;;;;;0.80;0.30;;;;;;;18.88;45.30;100940.28;5003845;28;20390;-42
2022/04/13 06:12:04;;;;;;;0.85;0.30;;;;;;;18.88;45.23;100944.72;4975508;28;20058;-41
2022/04/13 06:14:30;;;;;;;1.85;0.20;;;;;;;18.87;45.26;100938.63;4984676;28;20445;-44
2022/04/13 06:16:55;;;;;;;2.35;0.20;;;;;;;18.86;45.11;100941.47;4988169;28;20054;-41
2022/04/13 06:19:21;;;;;;;2.17;0.20;;;;;;;18.86;45.21;100941.47;4988773;28;20038;-40
2022/04/13 06:21:46;;;;;;;1.55;0.30;;;;;;;18.86;45.20;100946.75;4987063;28;20103;-43
2022/04/13 06:24:12;;;;;;;0.60;0.20;;;;;;;18.86;45.10;100947.56;4987294;28;20031;-42
2022/04/13 06:26:37;;;;;;;1.58;0.30;;;;;;;18.87;45.28;100957.13;4988121;28;20033;-40
2022/04/13 06:29:03;;;;;;;1.42;0.20;;;;;;;18.86;45.46;100958.13;4988028;28;20092;-42
2022/04/13 06:31:29;;;;;;;1.00;0.20;;;;;;;18.88;45.50;100965.84;4986712;28;20034;-43
2022/04/13 06:33:54;;;;;;;5.60;0.30;;;;;;;18.90;46.07;100967.28;4989007;28;20133;-41
2022/04/13 06:36:20;;;;;;;6.60;0.30;;;;;;;18.92;45.63;100967.09;4989076;28;20065;-43
2022/04/13 06:38:45;;;;;;;0.95;0.22;;;;;;;18.94;45.82;100972.19;4989116;28;20434;-45
2022/04/13 06:41:11;;;;;;;4.50;0.30;;;;;;;18.94;45.90;100980.09;4988801;28;20038;-42
2022/04/13 06:43:38;;;;;;;4.22;0.50;;;;;;;18.94;46.21;100974.81;4988895;28;20113;-45
2022/04/13 06:46:04;;;;;;;6.53;0.52;;;;;;;18.94;46.22;100975.63;4989126;28;20073;-43
2022/04/13 06:48:29;;;;;;;5.82;0.47;;;;;;;18.95;46.37;100973.81;4986719;28;20030;-42
2022/04/13 06:50:55;;;;;;;5.30;0.47;;;;;;;18.96;46.70;100972.81;4986720;28;20030;-41
2022/04/13 06:53:20;;;;;;;5.18;0.60;;;;;;;18.96;46.72;100972.81;4988218;28;20429;-44
2022/04/13 06:55:47;;;;;;;5.35;0.43;;;;;;;18.96;46.63;100978.09;4988480;28;20029;-49
2022/04/13 06:58:14;;;;;;;2.88;0.30;;;;;;;18.94;46.85;100980.91;4988259;28;20482;-49
2022/04/13 07:00:40;;;;;;;2.90;0.60;;;;;;;18.94;47.03;100980.91;4988922;28;20034;-44
2022/04/13 07:03:05;;;;;;;6.03;0.95;;;;;;;18.97;47.64;100979.72;4988687;28;20029;-49
2022/04/13 07:05:31;;;;;;;5.45;0.50;;;;;;;19.03;48.30;100984.28;4988885;28;20454;-47
2022/04/13 07:07:57;;;;;;;4.40;0.60;;;;;;;19.02;48.50;100985.28;4988323;28;20113;-44
2022/04/13 07:10:23;;;;;;;6.28;0.40;;;;;;;19.03;48.45;100984.28;4988503;28;20081;-44
2022/04/13 07:12:49;;;;;;;2.15;0.60;;;;;;;19.03;48.79;100981.63;4988080;28;20094;-51
2022/04/13 07:15:17;;;;;;;6.32;0.77;;;;;;;19.05;48.96;100988.38;4988809;28;20104;-50
2022/04/13 07:17:43;;;;;;;4.28;0.47;;;;;;;19.04;48.56;100985.91;4988081;28;20033;-47
2022/04/13 07:20:10;;;;;;;4.00;0.65;;;;;;;19.02;48.25;100990.56;4988512;28;20030;-47
2022/04/13 07:22:55;;;;;;;2.10;0.50;;;;;;;18.99;47.92;101002.31;4987252;28;20474;-46
2022/04/13 07:25:21;;;;;;;4.10;0.30;;;;;;;18.98;48.06;100998.03;4988075;28;20026;-53
2022/04/13 07:27:48;;;;;;;2.72;0.22;;;;;;;18.97;47.87;100999.03;4988181;28;20053;-47
2022/04/13 07:30:13;;;;;;;1.55;0.30;;;;;;;18.98;48.13;101002.50;4987505;28;20161;-48
2022/04/13 07:32:40;;;;;;;1.38;0.40;;;;;;;18.97;47.77;100991.13;4988174;28;20352;-58
2022/04/13 07:35:06;;;;;;;2.17;0.30;;;;;;;18.98;47.64;100997.22;4987499;28;20121;-52
2022/04/13 07:37:32;;;;;;;4.53;0.40;;;;;;;18.97;47.52;101001.69;4989026;28;20508;-48
2022/04/13 07:39:59;;;;;;;1.73;0.25;;;;;;;18.98;47.37;101000.66;4988544;28;20122;-55
2022/04/13 07:42:26;;;;;;;1.42;0.30;;;;;;;18.98;47.24;101002.50;4987898;28;20253;-48
2022/04/13 07:44:53;;;;;;;11.32;0.50;;;;;;;18.97;47.62;101006.97;4988263;28;20035;-53
2022/04/13 07:47:22;;;;;;;9.88;0.50;;;;;;;18.97;47.65;101006.97;4987985;28;20113;-48
2022/04/13 07:49:48;;;;;;;14.32;0.93;;;;;;;18.96;47.79;101009.78;4987943;28;20112;-47
2022/04/13 07:52:15;;;;;;;15.18;0.98;;;;;;;18.95;47.95;101008.97;4987782;28;20489;-53
2022/04/13 07:54:41;;;;;;;6.90;0.40;;;;;;;18.93;48.29;101016.25;4986929;28;20093;-50
2022/04/13 07:57:07;;;;;;;6.32;0.70;;;;;;;18.94;48.31;101007.31;4987193;28;20033;-54
2022/04/13 07:59:32;;;;;;;9.15;1.35;;;;;;;18.92;47.62;101019.06;4988110;28;20433;-52
2022/04/13 08:01:58;;;;;;;6.00;1.42;;;;;;;18.89;46.73;101017.66;4987744;28;20292;-48
2022/04/13 08:04:24;;;;;;;9.20;1.10;;;;;;;18.87;46.72;101012.56;4987453;28;20546;-48
2022/04/13 08:06:49;;;;;;;7.85;0.70;;;;;;;18.88;46.58;101027.41;4986848;28;20030;-47
2022/04/13 08:09:15;;;;;;;7.55;0.60;;;;;;;18.88;46.87;101016.84;4986862;28;20045;-49
2022/04/13 08:11:40;;;;;;;5.78;0.60;;;;;;;18.87;47.33;101017.84;4986193;28;20049;-48
2022/04/13 08:14:06;;;;;;;3.10;0.63;;;;;;;18.88;47.21;101024.75;4987613;28;20042;-48
2022/04/13 08:16:32;;;;;;;7.53;0.95;;;;;;;18.89;47.25;101028.22;4987252;28;20041;-51
2022/04/13 08:18:57;;;;;;;6.50;0.82;;;;;;;18.89;47.36;101023.75;4987476;28;20442;-51
2022/04/13 08:21:23;;;;;;;1.65;0.50;;;;;;;18.90;47.37;101022.72;4986511;28;20061;-52
2022/04/13 08:23:49;;;;;;;4.97;0.90;;;;;;;18.92;47.30;101021.72;4987318;28;20038;-49
2022/04/13 08:26:14;;;;;;;4.00;0.73;;;;;;;18.91;47.23;101023.53;4987176;28;20081;-51
2022/04/13 08:28:40;;;;;;;3.95;0.40;;;;;;;18.91;47.23;101023.53;4986569;28;20300;-49
2022/04/13 08:31:07;;;;;;;8.35;0.63;;;;;;;18.91;47.20;101023.53;4987152;28;20033;-51
2022/04/13 08:33:33;;;;;;;5.55;0.55;;;;;;;18.92;47.28;101019.91;4973766;28;20033;-50
2022/04/13 08:35:58;;;;;;;2.72;0.98;;;;;;;18.92;47.21;101019.91;4986535;28;20034;-49
2022/04/13 08:38:23;;;;;;;5.32;0.50;;;;;;;18.95;47.08;101023.97;4986993;28;20042;-53
2022/04/13 08:40:59;;;;;;;3.28;0.60;;;;;;;18.93;47.02;101016.25;4987266;28;20026;-43
2022/04/13 08:43:43;;;;;;;8.43;0.52;;;;;;;18.93;46.35;101026.00;4986922;28;20054;-46
2022/04/13 08:46:15;;;;;;;8.65;0.88;;;;;;;18.94;45.96;101025.00;4984776;28;20061;-49
2022/04/13 08:48:45;;;;;;;8.68;1.02;;;;;;;18.95;45.25;101016.88;4983836;28;20456;-46
2022/04/13 08:51:15;;;;;;;3.60;1.00;;;;;;;18.96;44.71;101017.69;4987572;28;20038;-49
2022/04/13 08:53:43;;;;;;;6.82;0.70;;;;;;;18.95;44.64;101014.25;4986970;28;20545;-46
2022/04/13 08:56:13;;;;;;;3.47;0.88;;;;;;;18.96;44.66;101005.31;4999287;23;20054;-71
2022/04/13 08:58:49;;;;;;;3.38;0.50;;;;;;;18.95;44.80;101008.97;4985986;28;20376;-72
2022/04/13 09:01:24;;;;;;;3.38;0.52;;;;;;;18.95;44.11;101008.16;4985344;28;20173;-72
2022/04/13 09:03:52;;;;;;;4.20;1.23;;;;;;;18.92;43.83;101014.63;4985304;28;20513;-71
2022/04/13 09:06:20;;;;;;;6.18;1.67;;;;;;;18.92;44.33;101013.78;4985667;28;20470;-71
2022/04/13 09:08:54;;;;;;;10.02;1.40;;;;;;;18.92;44.70;101004.06;4983815;28;20041;-72
2022/04/13 09:11:22;;;;;;;4.40;1.30;;;;;;;18.96;45.96;101004.50;4984605;28;20026;-71
2022/04/13 09:13:49;;;;;;;3.20;1.30;;;;;;;18.98;45.57;101003.31;4986513;28;20022;-72
2022/04/13 09:16:15;;;;;;;5.97;1.60;;;;;;;18.97;45.28;101004.31;4982477;28;20038;-71
2022/04/13 09:18:42;;;;;;;2.85;1.27;;;;;;;18.94;44.95;100996.75;4981306;28;20053;-71
2022/04/13 09:21:07;;;;;;;5.10;2.30;;;;;;;18.92;44.65;100998.78;4984974;28;20068;-70
2022/04/13 09:23:32;;;;;;;3.88;1.80;;;;;;;18.90;44.28;100992.88;4985573;28;20065;-70
2022/04/13 09:25:59;;;;;;;3.03;1.52;;;;;;;18.90;43.98;101000.81;4995024;28;20153;-71
2022/04/13 09:28:26;;;;;;;4.18;1.85;;;;;;;18.88;43.29;101000.19;4986044;28;20525;-71
2022/04/13 09:30:53;;;;;;;5.50;2.22;;;;;;;18.86;43.09;100992.44;4990036;28;20521;-71
2022/04/13 09:33:19;;;;;;;3.95;2.13;;;;;;;18.86;42.69;101000.34;4983300;28;20084;-71
2022/04/13 09:35:44;;;;;;;4.63;2.55;;;;;;;18.86;42.19;100997.72;5003745;28;20030;-72
2022/04/13 09:38:09;;;;;;;7.18;3.65;;;;;;;18.85;41.63;100996.09;4989280;28;20494;-72
2022/04/13 09:40:40;;;;;;;9.85;3.90;;;;;;;18.84;40.71;100988.34;4985199;28;20037;-71
2022/04/13 09:43:10;;;;;;;6.10;3.75;;;;;;;18.85;40.56;100989.97;4988816;28;20066;-72
2022/04/13 09:45:40;;;;;;;6.55;3.03;;;;;;;18.87;40.38;100985.34;4984850;28;20030;-71
2022/04/13 09:48:10;;;;;;;3.33;2.55;;;;;;;18.86;40.47;100984.53;4982270;28;20033;-71
2022/04/13 09:50:37;;;;;;;5.55;2.47;;;;;;;18.86;40.34;100981.88;4990945;28;20038;-71
2022/04/13 09:53:05;;;;;;;5.30;3.05;;;;;;;18.87;39.67;100980.88;5008826;28;20057;-71
2022/04/13 09:55:33;;;;;;;7.32;3.03;;;;;;;18.86;39.62;100981.88;4989707;28;20026;-72
2022/04/13 09:58:13;;;;;;;4.80;3.60;;;;;;;18.85;39.00;100980.25;4988236;28;20521;-71
2022/04/13 10:00:41;;;;;;;4.88;3.13;;;;;;;18.85;39.31;100977.59;4984854;28;20599;-73
2022/04/13 10:03:16;;;;;;;5.00;3.47;;;;;;;18.84;38.91;100970.69;4987919;28;20034;-71
2022/04/13 10:05:44;;;;;;;6.95;3.95;;;;;;;18.84;38.77;100980.44;4988281;28;20279;-71
2022/04/13 10:08:12;;;;;;;6.57;3.67;;;;;;;18.85;38.86;100976.78;4988738;28;20109;-72
2022/04/13 10:10:45;;;;;;;6.53;4.32;;;;;;;18.83;38.77;100971.69;4989902;28;20363;-72
2022/04/13 10:13:13;;;;;;;4.45;3.10;;;;;;;18.84;39.02;100977.78;4977745;28;20156;-73
2022/04/13 10:15:38;;;;;;;6.60;3.65;;;;;;;18.83;39.35;100971.69;4989957;28;20030;-72
2022/04/13 10:18:05;;;;;;;15.48;3.30;;;;;;;18.84;39.43;100965.41;4989683;28;20030;-71
2022/04/13 10:20:46;;;;;;;18.65;4.47;;;;;;;18.84;40.67;100965.41;4988298;28;20026;-71
2022/04/13 10:23:12;;;;;;;12.55;3.63;;;;;;;18.92;42.67;100966.28;4990279;28;20034;-71
2022/04/13 10:25:38;;;;;;;12.50;4.10;;;;;;;19.01;44.51;100954.59;4989567;28;20202;-71
2022/04/13 10:28:04;;;;;;;9.63;4.63;;;;;;;19.08;45.05;100952.84;4989659;28;20179;-71
2022/04/13 10:30:36;;;;;;;17.70;5.03;;;;;;;19.14;47.05;100958.19;4990551;28;20092;-71
2022/04/13 10:33:05;;;;;;;14.75;5.25;;;;;;;19.19;45.44;100949.69;4989210;28;20402;-71
2022/04/13 10:35:33;;;;;;;13.10;5.38;;;;;;;19.14;43.14;100947.63;4988497;28;20037;-71
2022/04/13 10:37:59;;;;;;;14.73;4.20;;;;;;;19.09;41.77;100942.09;4988755;28;20106;-71
2022/04/13 10:40:26;;;;;;;10.02;3.80;;;;;;;19.06;41.92;100941.66;4988195;28;20133;-71
2022/04/13 10:42:53;;;;;;;8.13;4.15;;;;;;;19.08;43.44;100937.00;4989344;28;20110;-71
2022/04/13 10:45:19;;;;;;;20.10;3.78;;;;;;;19.16;44.36;100931.59;4988511;28;20082;-71
2022/04/13 10:48:11;;;;;;;7.28;3.05;;;;;;;19.22;45.26;100936.13;4989304;28;20034;-71
2022/04/13 10:50:54;;;;;;;6.50;3.13;;;;;;;19.28;45.49;100935.38;4984690;28;20478;-71
2022/04/13 10:53:29;;;;;;;5.82;2.22;;;;;;;19.32;45.66;100939.25;4983960;28;20498;-70
2022/04/13 10:56:06;;;;;;;5.25;2.78;;;;;;;19.36;45.94;100932.59;4982034;28;20474;-71
2022/04/13 10:59:03;;;;;;;6.50;2.63;;;;;;;19.43;48.76;100932.63;4987458;28;20038;-70
2022/04/13 11:01:42;;;;;;;11.75;3.03;;;;;;;19.54;54.23;100932.13;4984028;28;20034;-71
2022/04/13 11:04:07;;;;;;;4.72;2.28;;;;;;;19.59;54.41;100934.22;4984585;28;20030;-72
2022/04/13 11:06:35;;;;;;;4.60;1.85;;;;;;;19.57;54.01;100925.66;5002106;28;20089;-72
2022/04/13 11:09:08;;;;;;;5.60;2.00;;;;;;;19.56;54.03;100932.75;4988911;28;20569;-72
2022/04/13 11:11:37;;;;;;;6.90;2.13;;;;;;;19.61;56.17;100925.09;4988837;28;20077;-71
2022/04/13 11:14:19;;;;;;;7.63;3.63;;;;;;;19.95;64.45;100921.63;4987335;28;20510;-71
2022/04/13 11:16:45;;;;;;;8.15;3.50;;;;;;;20.31;66.57;100925.91;4988387;28;20040;-72
2022/04/13 11:19:10;;;;;;;6.45;3.70;;;;;;;20.57;69.38;100928.66;4988584;28;20030;-71
2022/04/13 11:21:51;;;;;;;4.82;2.83;;;;;;;20.75;72.04;100922.81;4987956;28;20410;-71
2022/04/13 11:24:30;;;;;;;4.82;2.90;;;;;;;20.85;72.20;100924.03;4985688;28;20041;-71
2022/04/13 11:26:56;;;;;;;3.20;1.80;;;;;;;20.68;67.38;100928.09;4988021;28;20049;-71